createdAt,value
2016-12-27T00:05:02.997Z,0
2016-12-27T00:15:14.538Z,0
2016-12-27T00:25:26.053Z,0
2016-12-27T00:35:37.594Z,0
2016-12-27T00:45:49.158Z,0
2016-12-27T00:56:00.704Z,0
2016-12-27T01:06:12.338Z,0
2016-12-27T01:16:23.924Z,0
2016-12-27T01:26:35.537Z,0
2016-12-27T01:36:47.108Z,0
2016-12-27T01:46:58.648Z,0
2016-12-27T01:57:10.224Z,0
2016-12-27T02:07:21.808Z,0
2016-12-27T02:17:33.373Z,0
2016-12-27T02:27:44.929Z,0
2016-12-27T02:37:56.521Z,0
2016-12-27T02:48:08.020Z,0
2016-12-27T02:58:19.551Z,0
2016-12-27T03:08:31.089Z,0
2016-12-27T03:18:42.644Z,0
2016-12-27T03:28:54.190Z,0
2016-12-27T03:39:05.829Z,0
2016-12-27T03:49:17.458Z,0
2016-12-27T03:59:29.109Z,0
2016-12-27T04:09:40.765Z,0
2016-12-27T04:19:52.391Z,0
2016-12-27T04:30:03.992Z,0
2016-12-27T04:40:15.556Z,0
2016-12-27T04:50:27.221Z,0
2016-12-27T05:00:38.915Z,0
2016-12-27T05:10:50.632Z,0
2016-12-27T05:21:02.315Z,0
2016-12-27T05:31:13.952Z,0
2016-12-27T05:41:25.702Z,0
2016-12-27T05:51:37.242Z,0
2016-12-27T06:01:48.919Z,0
2016-12-27T06:12:00.613Z,0
2016-12-27T06:22:12.326Z,0
2016-12-27T06:32:24.055Z,0
2016-12-27T06:42:35.828Z,0
2016-12-27T06:52:47.641Z,4
2016-12-27T07:02:59.476Z,4
2016-12-27T07:13:11.272Z,32
2016-12-27T07:23:23.011Z,128
2016-12-27T07:33:34.795Z,296
2016-12-27T07:43:46.602Z,436
2016-12-27T07:53:58.346Z,688
2016-12-27T08:04:09.979Z,1024
2016-12-27T08:14:21.588Z,1020
2016-12-27T08:24:33.181Z,1796
2016-12-27T08:34:44.721Z,2268
2016-12-27T08:44:56.268Z,3664
2016-12-27T08:55:07.737Z,6480
2016-12-27T09:05:19.148Z,6084
2016-12-27T09:15:30.563Z,7688
2016-12-27T09:25:41.888Z,6544
2016-12-27T09:35:53.252Z,8948
2016-12-27T09:46:04.600Z,13708
2016-12-27T09:56:15.874Z,46848
2016-12-27T10:06:26.984Z,51968
2016-12-27T10:16:37.830Z,55936
2016-12-27T10:26:48.482Z,55232
2016-12-27T10:36:59.114Z,55456
2016-12-27T10:47:09.629Z,57120
2016-12-27T10:57:20.186Z,66048
2016-12-27T11:07:30.561Z,54880
2016-12-27T11:17:40.958Z,66592
2016-12-27T11:27:51.321Z,54048
2016-12-27T11:38:01.644Z,70656
2016-12-27T11:48:11.946Z,33984
2016-12-27T11:58:22.178Z,65504
2016-12-27T12:08:32.387Z,19424
2016-12-27T12:18:42.606Z,64320
2016-12-27T12:28:52.811Z,61408
2016-12-27T12:39:02.903Z,59936
2016-12-27T12:49:12.920Z,52224
2016-12-27T12:59:22.847Z,58752
2016-12-27T13:09:32.787Z,20032
2016-12-27T13:19:42.802Z,11200
2016-12-27T13:29:53.034Z,14932
2016-12-27T13:40:03.316Z,10464
2016-12-27T13:50:13.705Z,5824
2016-12-27T14:00:24.231Z,4432
2016-12-27T14:10:34.818Z,23200
2016-12-27T14:20:45.287Z,11324
2016-12-27T14:30:55.630Z,4900
2016-12-27T14:41:06.055Z,1544
2016-12-27T14:51:16.649Z,1288
2016-12-27T15:01:27.313Z,1384
2016-12-27T15:11:38.022Z,572
2016-12-27T15:21:48.740Z,260
2016-12-27T15:31:59.542Z,128
2016-12-27T15:42:10.345Z,32
2016-12-27T15:52:21.264Z,4
2016-12-27T16:02:32.164Z,4
2016-12-27T16:12:43.039Z,0
2016-12-27T16:22:53.925Z,0
2016-12-27T16:33:04.813Z,0
2016-12-27T16:43:15.722Z,0
2016-12-27T16:53:26.706Z,0
2016-12-27T17:03:37.784Z,0
2016-12-27T17:13:48.944Z,0
2016-12-27T17:24:00.046Z,0
2016-12-27T17:34:11.172Z,0
2016-12-27T17:44:22.362Z,0
2016-12-27T17:54:33.537Z,0
2016-12-27T18:04:44.675Z,0
2016-12-27T18:14:55.862Z,0
2016-12-27T18:25:07.089Z,0
2016-12-27T18:35:18.399Z,0
2016-12-27T18:45:29.697Z,0
2016-12-27T18:55:40.960Z,0
2016-12-27T19:05:52.295Z,0
2016-12-27T19:16:03.642Z,0
2016-12-27T19:26:14.973Z,0
2016-12-27T19:36:26.303Z,0
2016-12-27T19:46:37.692Z,0
2016-12-27T19:56:49.108Z,0
2016-12-27T20:07:00.526Z,0
2016-12-27T20:17:11.958Z,0
2016-12-27T20:27:23.357Z,0
2016-12-27T20:37:34.768Z,0
2016-12-27T20:47:46.180Z,0
2016-12-27T20:57:57.580Z,0
2016-12-27T21:08:08.955Z,0
2016-12-27T21:18:20.321Z,0
2016-12-27T21:28:31.688Z,0
2016-12-27T21:38:43.066Z,0
2016-12-27T21:48:54.470Z,0
2016-12-27T21:59:05.922Z,0
2016-12-27T22:09:17.290Z,0
2016-12-27T22:19:28.670Z,0
2016-12-27T22:29:39.984Z,0
2016-12-27T22:39:51.309Z,0
2016-12-27T22:50:02.668Z,0
2016-12-27T23:00:14.034Z,0
2016-12-27T23:10:25.344Z,0
2016-12-27T23:20:36.664Z,0
2016-12-27T23:30:47.936Z,0
2016-12-27T23:40:59.213Z,0
2016-12-27T23:51:10.505Z,0
